createdAt,value
2017-01-15T00:00:05.482Z,99.99
2017-01-15T00:01:16.882Z,99.99
2017-01-15T00:02:28.285Z,99.99
2017-01-15T00:03:39.678Z,99.99
2017-01-15T00:04:51.131Z,99.99
2017-01-15T00:06:02.734Z,99.99
2017-01-15T00:07:14.127Z,99.99
2017-01-15T00:08:25.523Z,99.99
2017-01-15T00:09:37.123Z,99.99
2017-01-15T00:10:48.572Z,99.99
2017-01-15T00:12:00.196Z,99.99
2017-01-15T00:13:11.600Z,99.99
2017-01-15T00:14:22.996Z,99.99
2017-01-15T00:15:34.404Z,99.99
2017-01-15T00:16:45.845Z,99.99
2017-01-15T00:17:57.447Z,99.99
2017-01-15T00:19:08.847Z,99.99
2017-01-15T00:20:20.443Z,99.99
2017-01-15T00:21:31.838Z,99.99
2017-01-15T00:22:43.285Z,99.99
2017-01-15T00:23:54.690Z,99.99
2017-01-15T00:25:06.095Z,99.99
2017-01-15T00:26:17.526Z,99.99
2017-01-15T00:27:28.924Z,99.99
2017-01-15T00:28:40.576Z,99.99
2017-01-15T00:29:52.168Z,99.99
2017-01-15T00:31:03.572Z,99.99
2017-01-15T00:32:14.982Z,99.99
2017-01-15T00:33:26.385Z,99.99
2017-01-15T00:34:37.835Z,99.99
2017-01-15T00:35:49.238Z,99.99
2017-01-15T00:37:00.863Z,99.99
2017-01-15T00:38:12.267Z,99.99
2017-01-15T00:39:23.672Z,99.99
2017-01-15T00:40:35.110Z,99.99
2017-01-15T00:41:46.713Z,99.99
2017-01-15T00:42:58.119Z,99.99
2017-01-15T00:44:09.716Z,99.99
2017-01-15T00:45:21.111Z,99.99
2017-01-15T00:46:32.557Z,99.99
2017-01-15T00:47:43.959Z,99.99
2017-01-15T00:48:55.356Z,99.99
2017-01-15T00:50:06.751Z,99.99
2017-01-15T00:51:18.150Z,99.99
2017-01-15T00:52:29.606Z,99.99
2017-01-15T00:53:41.007Z,99.99
2017-01-15T00:54:52.402Z,99.99
2017-01-15T00:56:03.997Z,99.99
2017-01-15T00:57:15.405Z,99.99
2017-01-15T00:58:26.863Z,99.99
2017-01-15T00:59:38.258Z,99.99
2017-01-15T01:00:49.649Z,99.99
2017-01-15T01:02:01.048Z,99.99
2017-01-15T01:03:12.443Z,99.99
2017-01-15T01:04:23.886Z,99.99
2017-01-15T01:05:35.295Z,99.99
2017-01-15T01:06:46.703Z,99.99
2017-01-15T01:07:58.099Z,99.99
2017-01-15T01:09:09.505Z,99.99
2017-01-15T01:10:20.953Z,99.99
2017-01-15T01:11:32.341Z,99.99
2017-01-15T01:12:44.168Z,99.99
2017-01-15T01:13:55.598Z,99.99
2017-01-15T01:15:07.402Z,99.99
2017-01-15T01:16:18.843Z,99.99
2017-01-15T01:17:30.239Z,99.99
2017-01-15T01:18:41.648Z,99.99
2017-01-15T01:19:53.449Z,99.99
2017-01-15T01:21:04.848Z,99.99
2017-01-15T01:22:16.335Z,99.99
2017-01-15T01:23:27.729Z,99.99
2017-01-15T01:24:39.123Z,99.99
2017-01-15T01:25:50.528Z,99.99
2017-01-15T01:27:01.929Z,99.99
2017-01-15T01:28:13.376Z,99.99
2017-01-15T01:29:24.772Z,99.99
2017-01-15T01:30:36.178Z,99.99
2017-01-15T01:31:47.575Z,99.99
2017-01-15T01:32:58.978Z,99.99
2017-01-15T01:34:10.429Z,99.99
2017-01-15T01:35:21.829Z,99.99
2017-01-15T01:36:33.226Z,99.99
2017-01-15T01:37:44.629Z,99.99
2017-01-15T01:38:56.021Z,99.99
2017-01-15T01:40:07.466Z,99.99
2017-01-15T01:41:18.860Z,99.99
2017-01-15T01:42:30.269Z,99.99
2017-01-15T01:43:41.672Z,99.99
2017-01-15T01:44:53.066Z,99.99
2017-01-15T01:46:04.527Z,99.99
2017-01-15T01:47:15.921Z,99.99
2017-01-15T01:48:27.310Z,99.99
2017-01-15T01:49:38.711Z,99.99
2017-01-15T01:50:50.112Z,99.99
2017-01-15T01:52:01.755Z,99.99
2017-01-15T01:53:13.190Z,99.99
2017-01-15T01:54:24.789Z,99.99
2017-01-15T01:55:36.391Z,99.99
2017-01-15T01:56:47.787Z,99.99
2017-01-15T01:57:59.445Z,99.99
2017-01-15T01:59:11.048Z,99.99
2017-01-15T02:00:22.450Z,99.99
2017-01-15T02:01:33.853Z,99.99
2017-01-15T02:02:45.255Z,99.99
2017-01-15T02:03:56.696Z,99.99
2017-01-15T02:05:08.099Z,99.99
2017-01-15T02:06:19.495Z,99.99
2017-01-15T02:07:30.902Z,99.99
2017-01-15T02:08:42.302Z,99.99
2017-01-15T02:09:53.751Z,99.99
2017-01-15T02:11:05.153Z,99.99
2017-01-15T02:12:16.558Z,99.99
2017-01-15T02:13:28.164Z,99.99
2017-01-15T02:14:39.552Z,99.99
2017-01-15T02:15:51.406Z,99.99
2017-01-15T02:17:02.810Z,99.99
2017-01-15T02:18:14.207Z,99.99
2017-01-15T02:19:25.606Z,99.99
2017-01-15T02:20:36.999Z,99.99
2017-01-15T02:21:48.398Z,99.99
2017-01-15T02:22:59.787Z,99.99
2017-01-15T02:24:11.189Z,99.99
2017-01-15T02:25:22.587Z,99.99
2017-01-15T02:26:34.038Z,99.99
2017-01-15T02:27:45.441Z,99.99
2017-01-15T02:28:56.833Z,99.99
2017-01-15T02:30:08.227Z,99.99
2017-01-15T02:31:19.634Z,99.99
2017-01-15T02:32:31.088Z,99.99
2017-01-15T02:33:42.691Z,99.99
2017-01-15T02:34:54.095Z,99.99
2017-01-15T02:36:05.500Z,99.99
2017-01-15T02:37:16.892Z,99.99
2017-01-15T02:38:28.334Z,99.99
2017-01-15T02:39:39.734Z,99.99
2017-01-15T02:40:51.135Z,99.99
2017-01-15T02:42:02.563Z,99.99
2017-01-15T02:43:13.962Z,99.99
2017-01-15T02:44:25.414Z,99.99
2017-01-15T02:45:36.816Z,99.99
2017-01-15T02:46:48.214Z,99.99
2017-01-15T02:48:00.020Z,99.99
2017-01-15T02:49:11.424Z,99.99
2017-01-15T02:50:23.067Z,99.99
2017-01-15T02:51:34.542Z,99.99
2017-01-15T02:52:46.686Z,99.99
2017-01-15T02:53:59.082Z,99.99
2017-01-15T02:55:10.485Z,99.99
2017-01-15T02:56:21.952Z,99.99
2017-01-15T02:57:33.559Z,99.99
2017-01-15T02:58:44.959Z,99.99
2017-01-15T02:59:56.565Z,99.99
2017-01-15T03:01:07.973Z,99.99
2017-01-15T03:02:19.426Z,99.99
2017-01-15T03:03:30.826Z,99.99
2017-01-15T03:04:42.227Z,99.99
2017-01-15T03:05:53.627Z,99.99
2017-01-15T03:07:05.021Z,99.99
2017-01-15T03:08:16.675Z,99.99
2017-01-15T03:09:28.068Z,99.99
2017-01-15T03:10:39.473Z,99.99
2017-01-15T03:11:50.869Z,99.99
2017-01-15T03:13:02.255Z,99.99
2017-01-15T03:14:13.706Z,99.99
2017-01-15T03:15:25.099Z,99.99
2017-01-15T03:16:36.502Z,99.99
2017-01-15T03:17:47.896Z,99.99
2017-01-15T03:18:59.305Z,99.99
2017-01-15T03:20:10.759Z,99.99
2017-01-15T03:21:22.160Z,99.99
2017-01-15T03:22:33.755Z,99.99
2017-01-15T03:23:45.351Z,99.99
2017-01-15T03:24:56.755Z,99.99
2017-01-15T03:26:08.203Z,99.99
2017-01-15T03:27:19.608Z,99.99
2017-01-15T03:28:31.007Z,99.99
2017-01-15T03:29:42.414Z,99.99
2017-01-15T03:30:54.025Z,99.99
2017-01-15T03:32:05.677Z,99.99
2017-01-15T03:33:17.073Z,99.99
2017-01-15T03:34:28.471Z,99.99
2017-01-15T03:35:40.272Z,99.99
2017-01-15T03:36:51.671Z,99.99
2017-01-15T03:38:03.125Z,99.99
2017-01-15T03:39:14.720Z,99.99
2017-01-15T03:40:26.123Z,99.99
2017-01-15T03:41:37.528Z,99.99
2017-01-15T03:42:49.128Z,99.99
2017-01-15T03:44:00.576Z,99.99
2017-01-15T03:45:12.181Z,99.99
2017-01-15T03:46:23.579Z,99.99
2017-01-15T03:47:35.175Z,99.99
2017-01-15T03:48:46.587Z,99.99
2017-01-15T03:49:58.032Z,99.99
2017-01-15T03:51:09.437Z,99.99
2017-01-15T03:52:20.840Z,99.99
2017-01-15T03:53:32.231Z,99.99
2017-01-15T03:54:43.833Z,99.99
2017-01-15T03:55:55.281Z,99.99
2017-01-15T03:57:06.686Z,99.99
2017-01-15T03:58:18.086Z,99.99
2017-01-15T03:59:29.694Z,99.99
2017-01-15T04:00:41.091Z,99.99
2017-01-15T04:01:52.539Z,99.99
2017-01-15T04:03:04.144Z,99.99
2017-01-15T04:04:15.543Z,99.99
2017-01-15T04:05:26.948Z,99.99
2017-01-15T04:06:38.350Z,99.99
2017-01-15T04:07:49.835Z,99.99
2017-01-15T04:09:01.230Z,99.99
2017-01-15T04:10:12.630Z,99.99
2017-01-15T04:11:24.434Z,99.99
2017-01-15T04:12:35.851Z,99.99
2017-01-15T04:13:47.307Z,99.99
2017-01-15T04:14:58.699Z,99.99
2017-01-15T04:16:10.112Z,99.99
2017-01-15T04:17:21.510Z,99.99
2017-01-15T04:18:33.118Z,99.99
2017-01-15T04:19:44.568Z,99.99
2017-01-15T04:20:55.976Z,99.99
2017-01-15T04:22:07.375Z,99.99
2017-01-15T04:23:18.972Z,99.99
2017-01-15T04:24:30.585Z,99.99
2017-01-15T04:25:42.433Z,99.99
2017-01-15T04:26:53.830Z,99.99
2017-01-15T04:28:05.437Z,99.99
2017-01-15T04:29:16.838Z,99.99
2017-01-15T04:30:28.434Z,99.99
2017-01-15T04:31:40.087Z,99.99
2017-01-15T04:32:51.489Z,99.99
2017-01-15T04:34:02.902Z,99.99
2017-01-15T04:35:14.900Z,99.99
2017-01-15T04:36:26.322Z,99.99
2017-01-15T04:37:37.774Z,99.99
2017-01-15T04:38:49.198Z,99.99
2017-01-15T04:40:00.802Z,99.99
2017-01-15T04:41:12.204Z,99.99
2017-01-15T04:42:23.603Z,99.99
2017-01-15T04:43:35.059Z,99.99
2017-01-15T04:44:46.663Z,99.99
2017-01-15T04:45:58.089Z,99.99
2017-01-15T04:47:09.491Z,99.99
2017-01-15T04:48:20.887Z,99.99
2017-01-15T04:49:32.533Z,99.99
2017-01-15T04:50:43.941Z,99.99
2017-01-15T04:51:55.746Z,99.99
2017-01-15T04:53:07.343Z,99.99
2017-01-15T04:54:18.742Z,99.99
2017-01-15T04:55:30.196Z,99.99
2017-01-15T04:56:41.601Z,99.99
2017-01-15T04:57:53.002Z,99.99
2017-01-15T04:59:04.404Z,99.99
2017-01-15T05:00:15.806Z,99.99
2017-01-15T05:01:27.256Z,99.99
2017-01-15T05:02:38.655Z,99.99
2017-01-15T05:03:50.054Z,99.99
2017-01-15T05:05:01.445Z,99.99
2017-01-15T05:06:12.853Z,99.99
2017-01-15T05:07:24.313Z,99.99
2017-01-15T05:08:35.713Z,99.99
2017-01-15T05:09:47.114Z,99.99
2017-01-15T05:10:58.511Z,99.99
2017-01-15T05:12:09.921Z,99.99
2017-01-15T05:13:21.362Z,99.99
2017-01-15T05:14:32.756Z,99.99
2017-01-15T05:15:44.155Z,99.99
2017-01-15T05:16:55.553Z,99.99
2017-01-15T05:18:07.155Z,99.99
2017-01-15T05:19:18.606Z,99.99
2017-01-15T05:20:30.013Z,99.99
2017-01-15T05:21:41.418Z,99.99
2017-01-15T05:22:53.021Z,99.99
2017-01-15T05:24:04.413Z,99.99
2017-01-15T05:25:15.859Z,99.99
2017-01-15T05:26:27.468Z,99.99
2017-01-15T05:27:38.865Z,99.99
2017-01-15T05:28:50.254Z,99.99
2017-01-15T05:30:01.650Z,99.99
2017-01-15T05:31:13.306Z,99.99
2017-01-15T05:32:24.702Z,99.99
2017-01-15T05:33:36.107Z,99.99
2017-01-15T05:34:47.699Z,99.99
2017-01-15T05:35:59.094Z,99.99
2017-01-15T05:37:10.944Z,99.99
2017-01-15T05:38:22.348Z,99.99
2017-01-15T05:39:33.741Z,99.99
2017-01-15T05:40:45.340Z,99.99
2017-01-15T05:41:56.928Z,99.99
2017-01-15T05:43:08.378Z,99.99
2017-01-15T05:44:19.783Z,99.99
2017-01-15T05:45:31.192Z,99.99
2017-01-15T05:46:42.593Z,99.99
2017-01-15T05:47:53.995Z,99.99
2017-01-15T05:49:05.445Z,99.99
2017-01-15T05:50:16.848Z,99.99
2017-01-15T05:51:28.245Z,99.99
2017-01-15T05:52:39.640Z,99.99
2017-01-15T05:53:51.036Z,99.99
2017-01-15T05:55:02.485Z,99.99
2017-01-15T05:56:13.893Z,99.99
2017-01-15T05:57:25.295Z,99.99
2017-01-15T05:58:36.922Z,99.99
2017-01-15T05:59:48.514Z,99.99
2017-01-15T06:00:59.965Z,99.99
2017-01-15T06:02:11.362Z,99.99
2017-01-15T06:03:22.787Z,99.99
2017-01-15T06:04:34.379Z,99.99
2017-01-15T06:05:45.788Z,99.99
2017-01-15T06:06:57.240Z,99.99
2017-01-15T06:08:08.636Z,99.99
2017-01-15T06:09:20.029Z,99.99
2017-01-15T06:10:31.429Z,99.99
2017-01-15T06:11:43.431Z,99.99
2017-01-15T06:12:54.891Z,99.99
2017-01-15T06:14:06.284Z,99.99
2017-01-15T06:15:17.682Z,99.99
2017-01-15T06:16:29.282Z,99.99
2017-01-15T06:17:40.682Z,99.99
2017-01-15T06:18:52.154Z,99.99
2017-01-15T06:20:03.556Z,99.99
2017-01-15T06:21:14.948Z,99.99
2017-01-15T06:22:26.346Z,99.99
2017-01-15T06:23:37.769Z,99.99
2017-01-15T06:24:49.226Z,99.99
2017-01-15T06:26:00.621Z,99.99
2017-01-15T06:27:12.220Z,99.99
2017-01-15T06:28:23.617Z,99.99
2017-01-15T06:29:35.048Z,99.99
2017-01-15T06:30:46.500Z,99.99
2017-01-15T06:31:57.902Z,99.99
2017-01-15T06:33:09.304Z,99.99
2017-01-15T06:34:20.702Z,99.99
2017-01-15T06:35:32.107Z,99.99
2017-01-15T06:36:43.555Z,99.99
2017-01-15T06:37:54.981Z,99.99
2017-01-15T06:39:06.386Z,99.99
2017-01-15T06:40:17.782Z,99.99
2017-01-15T06:41:29.180Z,99.99
2017-01-15T06:42:40.628Z,99.99
2017-01-15T06:43:52.032Z,99.99
2017-01-15T06:45:03.430Z,99.99
2017-01-15T06:46:14.829Z,99.99
2017-01-15T06:47:26.231Z,99.99
2017-01-15T06:48:37.678Z,99.99
2017-01-15T06:49:49.092Z,99.99
2017-01-15T06:51:00.494Z,99.99
2017-01-15T06:52:11.896Z,99.99
2017-01-15T06:53:23.291Z,99.99
2017-01-15T06:54:34.732Z,99.99
2017-01-15T06:55:46.125Z,99.99
2017-01-15T06:56:57.930Z,99.99
2017-01-15T06:58:09.527Z,99.99
2017-01-15T06:59:20.929Z,99.99
2017-01-15T07:00:32.384Z,99.99
2017-01-15T07:01:43.805Z,99.99
2017-01-15T07:02:55.399Z,99.99
2017-01-15T07:04:07.199Z,99.99
2017-01-15T07:05:18.810Z,99.99
2017-01-15T07:06:30.491Z,99.99
2017-01-15T07:07:41.899Z,99.99
2017-01-15T07:08:53.298Z,99.99
2017-01-15T07:10:04.892Z,99.99
2017-01-15T07:11:16.293Z,99.99
2017-01-15T07:12:27.944Z,99.99
2017-01-15T07:13:39.341Z,99.99
2017-01-15T07:14:50.736Z,99.99
2017-01-15T07:16:02.140Z,99.99
2017-01-15T07:17:13.736Z,99.99
2017-01-15T07:18:25.190Z,99.99
2017-01-15T07:19:36.591Z,99.99
2017-01-15T07:20:47.992Z,99.99
2017-01-15T07:21:59.380Z,99.99
2017-01-15T07:23:10.773Z,99.99
2017-01-15T07:24:22.223Z,99.99
2017-01-15T07:25:33.623Z,99.99
2017-01-15T07:26:45.013Z,99.99
2017-01-15T07:27:56.408Z,99.99
2017-01-15T07:29:07.801Z,99.99
2017-01-15T07:30:19.241Z,99.99
2017-01-15T07:31:30.642Z,99.99
2017-01-15T07:32:42.042Z,99.99
2017-01-15T07:33:53.462Z,99.99
2017-01-15T07:35:04.861Z,99.99
2017-01-15T07:36:16.506Z,99.99
2017-01-15T07:37:27.906Z,99.99
2017-01-15T07:38:39.303Z,99.99
2017-01-15T07:39:50.701Z,99.99
2017-01-15T07:41:02.100Z,99.99
2017-01-15T07:42:13.577Z,99.99
2017-01-15T07:43:24.975Z,99.99
2017-01-15T07:44:36.370Z,99.99
2017-01-15T07:45:47.778Z,99.99
2017-01-15T07:46:59.179Z,99.99
2017-01-15T07:48:10.628Z,99.99
2017-01-15T07:49:22.033Z,99.99
2017-01-15T07:50:33.638Z,99.99
2017-01-15T07:51:45.238Z,99.99
2017-01-15T07:52:56.649Z,99.99
2017-01-15T07:54:08.096Z,99.99
2017-01-15T07:55:19.494Z,99.99
2017-01-15T07:56:31.090Z,99.99
2017-01-15T07:57:42.476Z,99.99
2017-01-15T07:58:53.873Z,99.99
2017-01-15T08:00:05.330Z,99.99
2017-01-15T08:01:16.727Z,99.99
2017-01-15T08:02:28.126Z,99.99
2017-01-15T08:03:39.516Z,99.99
2017-01-15T08:04:51.119Z,99.99
2017-01-15T08:06:02.569Z,99.99
2017-01-15T08:07:14.171Z,99.99
2017-01-15T08:08:25.771Z,99.99
2017-01-15T08:09:37.383Z,99.99
2017-01-15T08:10:48.782Z,99.99
2017-01-15T08:12:00.230Z,99.99
2017-01-15T08:13:11.639Z,99.99
2017-01-15T08:14:23.038Z,99.99
2017-01-15T08:15:34.434Z,99.99
2017-01-15T08:16:45.861Z,99.99
2017-01-15T08:17:57.310Z,99.99
2017-01-15T08:19:08.739Z,99.99
2017-01-15T08:20:20.138Z,99.99
2017-01-15T08:21:31.540Z,99.99
2017-01-15T08:22:43.142Z,99.99
2017-01-15T08:23:54.601Z,99.99
2017-01-15T08:25:06.004Z,99.99
2017-01-15T08:26:17.408Z,99.99
2017-01-15T08:27:29.011Z,99.99
2017-01-15T08:28:40.411Z,99.99
2017-01-15T08:29:52.075Z,99.99
2017-01-15T08:31:03.476Z,99.99
2017-01-15T08:32:14.883Z,99.99
2017-01-15T08:33:26.485Z,99.99
2017-01-15T08:34:37.882Z,99.99
2017-01-15T08:35:49.337Z,99.99
2017-01-15T08:37:00.733Z,99.99
2017-01-15T08:38:12.147Z,99.99
2017-01-15T08:39:23.748Z,99.99
2017-01-15T08:40:35.145Z,99.99
2017-01-15T08:41:46.604Z,99.99
2017-01-15T08:42:58.028Z,99.99
2017-01-15T08:44:09.463Z,99.99
2017-01-15T08:45:20.859Z,99.99
2017-01-15T08:46:32.264Z,99.99
2017-01-15T08:47:43.718Z,99.99
2017-01-15T08:48:55.122Z,99.99
2017-01-15T08:50:06.731Z,99.99
2017-01-15T08:51:18.133Z,99.99
2017-01-15T08:52:29.530Z,99.99
2017-01-15T08:53:40.975Z,99.99
2017-01-15T08:54:52.376Z,99.99
2017-01-15T08:56:03.979Z,99.99
2017-01-15T08:57:15.375Z,99.99
2017-01-15T08:58:26.770Z,99.99
2017-01-15T08:59:38.423Z,99.99
2017-01-15T09:00:49.814Z,99.99
2017-01-15T09:02:01.215Z,99.99
2017-01-15T09:03:12.629Z,99.99
2017-01-15T09:04:24.033Z,99.99
2017-01-15T09:05:35.497Z,99.99
2017-01-15T09:06:47.110Z,99.99
2017-01-15T09:07:58.714Z,99.99
2017-01-15T09:09:10.114Z,99.99
2017-01-15T09:10:21.513Z,99.99
2017-01-15T09:11:32.958Z,99.99
2017-01-15T09:12:44.370Z,99.99
2017-01-15T09:13:55.771Z,99.99
2017-01-15T09:15:07.373Z,99.99
2017-01-15T09:16:18.773Z,99.99
2017-01-15T09:17:30.225Z,99.99
2017-01-15T09:18:41.655Z,99.99
2017-01-15T09:19:53.055Z,99.99
2017-01-15T09:21:04.663Z,99.99
2017-01-15T09:22:16.070Z,99.99
2017-01-15T09:23:27.522Z,99.99
2017-01-15T09:24:39.121Z,99.99
2017-01-15T09:25:50.527Z,99.99
2017-01-15T09:27:01.931Z,99.99
2017-01-15T09:28:13.541Z,99.99
2017-01-15T09:29:24.987Z,99.99
2017-01-15T09:30:36.388Z,99.99
2017-01-15T09:31:47.781Z,99.99
2017-01-15T09:32:59.386Z,99.99
2017-01-15T09:34:10.773Z,99.99
2017-01-15T09:35:22.624Z,99.99
2017-01-15T09:36:34.028Z,99.99
2017-01-15T09:37:45.434Z,99.99
2017-01-15T09:38:56.838Z,99.99
2017-01-15T09:40:08.238Z,99.99
2017-01-15T09:41:19.690Z,99.99
2017-01-15T09:42:31.086Z,99.99
2017-01-15T09:43:42.481Z,99.99
2017-01-15T09:44:53.881Z,99.99
2017-01-15T09:46:05.278Z,99.99
2017-01-15T09:47:16.742Z,99.99
2017-01-15T09:48:28.140Z,99.99
2017-01-15T09:49:39.544Z,99.99
2017-01-15T09:50:50.951Z,99.99
2017-01-15T09:52:02.352Z,99.99
2017-01-15T09:53:13.817Z,99.99
2017-01-15T09:54:25.224Z,99.99
2017-01-15T09:55:36.628Z,99.99
2017-01-15T09:56:48.034Z,99.99
2017-01-15T09:57:59.471Z,99.99
2017-01-15T09:59:10.939Z,99.99
2017-01-15T10:00:22.349Z,99.99
2017-01-15T10:01:33.766Z,99.99
2017-01-15T10:02:45.171Z,99.99
2017-01-15T10:03:57.183Z,99.99
2017-01-15T10:05:08.638Z,99.99
2017-01-15T10:06:20.046Z,99.99
2017-01-15T10:07:31.454Z,99.99
2017-01-15T10:08:42.879Z,99.99
2017-01-15T10:09:54.292Z,99.99
2017-01-15T10:11:05.759Z,99.99
2017-01-15T10:12:17.373Z,99.35
2017-01-15T10:13:28.991Z,99.92
2017-01-15T10:14:40.612Z,99.99
2017-01-15T10:15:52.025Z,99.99
2017-01-15T10:17:03.691Z,99.99
2017-01-15T10:18:15.120Z,99.83
2017-01-15T10:19:26.558Z,99.99
2017-01-15T10:20:37.966Z,99.99
2017-01-15T10:21:49.387Z,99.99
2017-01-15T10:23:00.851Z,99.99
2017-01-15T10:24:12.285Z,99.64
2017-01-15T10:25:23.707Z,99.99
2017-01-15T10:26:35.130Z,99.99
2017-01-15T10:27:46.542Z,99.99
2017-01-15T10:28:58.007Z,99.79
2017-01-15T10:30:09.625Z,97.5
2017-01-15T10:31:21.036Z,97.13
2017-01-15T10:32:32.444Z,95.32
2017-01-15T10:33:43.869Z,94.56
2017-01-15T10:34:55.333Z,94.93
2017-01-15T10:36:06.949Z,94.56
2017-01-15T10:37:18.367Z,96.94
2017-01-15T10:38:29.801Z,98.27
2017-01-15T10:39:41.416Z,99.99
2017-01-15T10:40:52.879Z,95.89
2017-01-15T10:42:04.302Z,95.89
2017-01-15T10:43:15.717Z,93.98
2017-01-15T10:44:27.166Z,93.74
2017-01-15T10:45:38.584Z,92.03
2017-01-15T10:46:50.051Z,89.17
2017-01-15T10:48:01.672Z,90.6
2017-01-15T10:49:13.282Z,90.5
2017-01-15T10:50:24.698Z,91.36
2017-01-15T10:51:36.310Z,94.84
2017-01-15T10:52:47.777Z,90.26
2017-01-15T10:53:59.247Z,86.36
2017-01-15T10:55:10.656Z,86.16
2017-01-15T10:56:22.074Z,85.41
2017-01-15T10:57:33.490Z,88.07
2017-01-15T10:58:44.955Z,86.55
2017-01-15T10:59:56.371Z,86.93
2017-01-15T11:01:07.789Z,85.78
2017-01-15T11:02:19.207Z,83.31
2017-01-15T11:03:30.622Z,83.02
2017-01-15T11:04:42.098Z,81.59
2017-01-15T11:05:53.516Z,81.68
2017-01-15T11:07:04.975Z,82.41
2017-01-15T11:08:16.589Z,83.84
2017-01-15T11:09:28.209Z,82.98
2017-01-15T11:10:39.679Z,83.93
2017-01-15T11:11:51.094Z,82.41
2017-01-15T11:13:02.507Z,81.46
2017-01-15T11:14:13.925Z,83.84
2017-01-15T11:15:25.543Z,86.12
2017-01-15T11:16:37.008Z,85.74
2017-01-15T11:17:48.430Z,82.69
2017-01-15T11:18:59.852Z,82.69
2017-01-15T11:20:11.264Z,84.12
2017-01-15T11:21:22.881Z,83.45
2017-01-15T11:22:34.342Z,84.41
2017-01-15T11:23:45.967Z,84.6
2017-01-15T11:24:57.384Z,83.65
2017-01-15T11:26:08.810Z,83.65
2017-01-15T11:27:20.230Z,83.74
2017-01-15T11:28:31.694Z,84.88
2017-01-15T11:29:43.109Z,83.84
2017-01-15T11:30:54.524Z,82.31
2017-01-15T11:32:06.145Z,84.12
2017-01-15T11:33:17.560Z,82.93
2017-01-15T11:34:29.021Z,84.08
2017-01-15T11:35:40.434Z,83.18
2017-01-15T11:36:51.850Z,83.75
2017-01-15T11:38:03.256Z,85.42
2017-01-15T11:39:14.671Z,85.61
2017-01-15T11:40:26.136Z,87.71
2017-01-15T11:41:37.550Z,88.56
2017-01-15T11:42:48.969Z,87.42
2017-01-15T11:44:00.379Z,88.09
2017-01-15T11:45:11.799Z,89.94
2017-01-15T11:46:23.264Z,89.27
2017-01-15T11:47:34.691Z,88.46
2017-01-15T11:48:46.110Z,87.23
2017-01-15T11:49:57.730Z,83.89
2017-01-15T11:51:09.163Z,83.61
2017-01-15T11:52:20.674Z,85.18
2017-01-15T11:53:32.289Z,85.04
2017-01-15T11:54:43.692Z,87.9
2017-01-15T11:55:55.110Z,87.99
2017-01-15T11:57:06.527Z,87.47
2017-01-15T11:58:17.983Z,90.04
2017-01-15T11:59:29.392Z,91.13
2017-01-15T12:00:40.810Z,91.13
2017-01-15T12:01:52.211Z,92.27
2017-01-15T12:03:03.625Z,93.65
2017-01-15T12:04:15.274Z,93.56
2017-01-15T12:05:26.687Z,95.27
2017-01-15T12:06:38.305Z,95.55
2017-01-15T12:07:49.734Z,97.97
2017-01-15T12:09:01.139Z,99.99
2017-01-15T12:10:12.597Z,99.21
2017-01-15T12:11:24.026Z,99.97
2017-01-15T12:12:35.433Z,99.99
2017-01-15T12:13:46.846Z,99.77
2017-01-15T12:14:58.258Z,99.99
2017-01-15T12:16:09.714Z,99.99
2017-01-15T12:17:21.118Z,99.99
2017-01-15T12:18:32.733Z,99.99
2017-01-15T12:19:44.136Z,99.99
2017-01-15T12:20:55.529Z,99.99
2017-01-15T12:22:06.975Z,99.99
2017-01-15T12:23:18.386Z,99.99
2017-01-15T12:24:30.012Z,99.99
2017-01-15T12:25:41.414Z,99.99
2017-01-15T12:26:52.819Z,99.99
2017-01-15T12:28:04.263Z,99.99
2017-01-15T12:29:15.661Z,99.99
2017-01-15T12:30:27.058Z,99.99
2017-01-15T12:31:38.472Z,99.99
2017-01-15T12:32:49.874Z,99.99
2017-01-15T12:34:01.347Z,99.99
2017-01-15T12:35:12.745Z,99.99
2017-01-15T12:36:24.381Z,99.99
2017-01-15T12:37:35.791Z,99.99
2017-01-15T12:38:47.197Z,99.99
2017-01-15T12:39:58.648Z,99.99
2017-01-15T12:41:10.062Z,99.99
2017-01-15T12:42:21.470Z,99.99
2017-01-15T12:43:32.873Z,99.99
2017-01-15T12:44:44.278Z,99.99
2017-01-15T12:45:55.735Z,99.99
2017-01-15T12:47:07.142Z,99.99
2017-01-15T12:48:18.544Z,99.99
2017-01-15T12:49:29.950Z,99.99
2017-01-15T12:50:41.355Z,99.99
2017-01-15T12:51:52.803Z,99.99
2017-01-15T12:53:04.205Z,99.99
2017-01-15T12:54:15.604Z,99.99
2017-01-15T12:55:27.232Z,99.99
2017-01-15T12:56:38.662Z,99.99
2017-01-15T12:57:50.108Z,99.99
2017-01-15T12:59:01.512Z,99.99
2017-01-15T13:00:12.938Z,99.99
2017-01-15T13:01:24.550Z,98.31
2017-01-15T13:02:35.962Z,96.84
2017-01-15T13:03:47.415Z,92.27
2017-01-15T13:04:58.827Z,91.8
2017-01-15T13:06:10.258Z,91.56
2017-01-15T13:07:21.869Z,92.18
2017-01-15T13:08:33.269Z,91.94
2017-01-15T13:09:44.926Z,92.41
2017-01-15T13:10:56.338Z,95.12
2017-01-15T13:12:07.753Z,95.94
2017-01-15T13:13:19.363Z,95.7
2017-01-15T13:14:30.971Z,94.7
2017-01-15T13:15:42.431Z,92.13
2017-01-15T13:16:53.840Z,92.08
2017-01-15T13:18:05.655Z,93.84
2017-01-15T13:19:17.067Z,95.08
2017-01-15T13:20:28.468Z,92.32
2017-01-15T13:21:39.921Z,92.03
2017-01-15T13:22:51.330Z,91.66
2017-01-15T13:24:02.733Z,90.75
2017-01-15T13:25:14.133Z,89.51
2017-01-15T13:26:25.734Z,86.94
2017-01-15T13:27:37.191Z,87.42
2017-01-15T13:28:48.657Z,90.08
2017-01-15T13:30:00.062Z,90.84
2017-01-15T13:31:11.476Z,92.18
2017-01-15T13:32:22.900Z,91.51
2017-01-15T13:33:34.350Z,92.32
2017-01-15T13:34:45.959Z,92.99
2017-01-15T13:35:57.367Z,91.75
2017-01-15T13:37:08.782Z,91.47
2017-01-15T13:38:20.183Z,92.41
2017-01-15T13:39:31.662Z,91.94
2017-01-15T13:40:43.089Z,91.56
2017-01-15T13:41:54.509Z,90.7
2017-01-15T13:43:06.118Z,90.8
2017-01-15T13:44:17.518Z,90.33
2017-01-15T13:45:29.178Z,92.03
2017-01-15T13:46:40.582Z,90.84
2017-01-15T13:47:51.993Z,90.56
2017-01-15T13:49:03.405Z,89.32
2017-01-15T13:50:14.817Z,87.61
2017-01-15T13:51:26.276Z,88.04
2017-01-15T13:52:37.882Z,90.04
2017-01-15T13:53:49.279Z,91.66
2017-01-15T13:55:00.680Z,92.03
2017-01-15T13:56:12.090Z,92.32
2017-01-15T13:57:23.537Z,91.47
2017-01-15T13:58:35.140Z,92.61
2017-01-15T13:59:46.746Z,93.18
2017-01-15T14:00:58.545Z,92.41
2017-01-15T14:02:09.958Z,92.41
2017-01-15T14:03:21.415Z,92.89
2017-01-15T14:04:33.019Z,92.66
2017-01-15T14:05:44.425Z,93.99
2017-01-15T14:06:55.837Z,94.37
2017-01-15T14:08:07.436Z,97.07
2017-01-15T14:09:18.887Z,98.88
2017-01-15T14:10:30.329Z,98.73
2017-01-15T14:11:42.140Z,99.99
2017-01-15T14:12:53.541Z,99.99
2017-01-15T14:14:04.951Z,99.99
2017-01-15T14:15:16.405Z,99.99
2017-01-15T14:16:27.816Z,99.99
2017-01-15T14:17:39.225Z,99.99
2017-01-15T14:18:50.620Z,99.99
2017-01-15T14:20:02.431Z,99.99
2017-01-15T14:21:14.089Z,99.99
2017-01-15T14:22:25.702Z,99.99
2017-01-15T14:23:37.107Z,99.99
2017-01-15T14:24:48.505Z,99.99
2017-01-15T14:25:59.910Z,99.99
2017-01-15T14:27:11.389Z,99.99
2017-01-15T14:28:23.005Z,99.99
2017-01-15T14:29:34.615Z,99.99
2017-01-15T14:30:46.012Z,99.99
2017-01-15T14:31:57.846Z,99.99
2017-01-15T14:33:09.304Z,99.99
2017-01-15T14:34:20.722Z,99.99
2017-01-15T14:35:32.328Z,99.99
2017-01-15T14:36:43.729Z,99.99
2017-01-15T14:37:55.339Z,99.99
2017-01-15T14:39:07.001Z,99.99
2017-01-15T14:40:18.406Z,99.99
2017-01-15T14:41:29.806Z,99.99
2017-01-15T14:42:41.206Z,99.99
2017-01-15T14:43:52.606Z,99.99
2017-01-15T14:45:04.259Z,99.99
2017-01-15T14:46:15.665Z,99.99
2017-01-15T14:47:27.071Z,99.99
2017-01-15T14:48:38.685Z,99.99
2017-01-15T14:49:50.088Z,99.99
2017-01-15T14:51:01.743Z,99.99
2017-01-15T14:52:13.348Z,99.99
2017-01-15T14:53:24.952Z,99.99
2017-01-15T14:54:36.572Z,99.99
2017-01-15T14:55:48.181Z,99.99
2017-01-15T14:56:59.624Z,99.99
2017-01-15T14:58:11.030Z,99.99
2017-01-15T14:59:22.431Z,99.99
2017-01-15T15:00:33.837Z,99.99
2017-01-15T15:01:45.245Z,99.99
2017-01-15T15:02:56.898Z,99.99
2017-01-15T15:04:08.300Z,99.99
2017-01-15T15:05:19.915Z,99.99
2017-01-15T15:06:31.321Z,99.99
2017-01-15T15:07:42.729Z,99.99
2017-01-15T15:08:54.196Z,99.99
2017-01-15T15:10:05.805Z,99.99
2017-01-15T15:11:17.209Z,99.99
2017-01-15T15:12:29.061Z,99.99
2017-01-15T15:13:40.481Z,99.99
2017-01-15T15:14:52.134Z,99.99
2017-01-15T15:16:03.744Z,99.99
2017-01-15T15:17:15.359Z,99.99
2017-01-15T15:18:26.760Z,99.99
2017-01-15T15:19:38.567Z,99.99
2017-01-15T15:20:50.026Z,99.99